createdAt,value
2017-09-26T00:02:23.019Z,12.90
2017-09-26T00:04:50.648Z,12.80
2017-09-26T00:07:18.319Z,12.80
2017-09-26T00:09:45.972Z,12.90
2017-09-26T00:12:13.619Z,12.80
2017-09-26T00:14:41.287Z,12.90
2017-09-26T00:17:09.691Z,12.80
2017-09-26T00:19:37.325Z,12.80
2017-09-26T00:22:04.996Z,12.80
2017-09-26T00:24:32.641Z,12.80
2017-09-26T00:27:00.276Z,12.80
2017-09-26T00:29:27.939Z,12.80
2017-09-26T00:31:55.580Z,12.90
2017-09-26T00:34:23.221Z,12.80
2017-09-26T00:36:51.183Z,12.80
2017-09-26T00:39:18.816Z,12.80
2017-09-26T00:41:46.449Z,12.80
2017-09-26T00:44:14.098Z,12.90
2017-09-26T00:46:41.725Z,12.90
2017-09-26T00:49:09.357Z,12.80
2017-09-26T00:51:37.014Z,12.90
2017-09-26T00:54:05.403Z,12.80
2017-09-26T00:56:33.037Z,12.80
2017-09-26T00:59:00.694Z,12.80
2017-09-26T01:01:29.926Z,12.80
2017-09-26T01:03:59.350Z,12.80
2017-09-26T01:06:27.776Z,12.80
2017-09-26T01:08:55.392Z,12.80
2017-09-26T01:11:23.009Z,12.80
2017-09-26T01:13:51.426Z,12.80
2017-09-26T01:16:19.057Z,12.80
2017-09-26T01:18:46.674Z,12.90
2017-09-26T01:21:15.093Z,12.80
2017-09-26T01:23:42.722Z,12.70
2017-09-26T01:26:10.342Z,12.70
2017-09-26T01:28:37.990Z,12.80
2017-09-26T01:31:05.608Z,12.70
2017-09-26T01:33:33.997Z,12.80
2017-09-26T01:36:01.651Z,12.70
2017-09-26T01:38:29.275Z,12.80
2017-09-26T01:41:09.495Z,12.80
2017-09-26T01:43:37.126Z,12.70
2017-09-26T01:46:04.746Z,12.80
2017-09-26T01:48:32.403Z,12.80
2017-09-26T01:51:00.024Z,12.80
2017-09-26T01:53:27.646Z,12.80
2017-09-26T01:55:56.065Z,12.90
2017-09-26T01:58:27.109Z,12.80
2017-09-26T02:00:54.739Z,12.90
2017-09-26T02:03:22.403Z,12.90
2017-09-26T02:05:50.028Z,12.90
2017-09-26T02:08:17.650Z,12.90
2017-09-26T02:10:45.305Z,12.90
2017-09-26T02:13:12.928Z,12.80
2017-09-26T02:15:40.545Z,12.90
2017-09-26T02:18:08.201Z,12.90
2017-09-26T02:20:36.595Z,12.80
2017-09-26T02:23:04.213Z,12.80
2017-09-26T02:25:32.637Z,12.70
2017-09-26T02:28:00.298Z,12.70
2017-09-26T02:30:27.931Z,12.70
2017-09-26T02:32:55.592Z,12.60
2017-09-26T02:35:23.209Z,12.70
2017-09-26T02:37:50.839Z,12.70
2017-09-26T02:40:18.487Z,12.60
2017-09-26T02:42:46.104Z,12.70
2017-09-26T02:45:13.728Z,12.70
2017-09-26T02:47:41.379Z,12.70
2017-09-26T02:50:09.005Z,12.80
2017-09-26T02:52:36.624Z,12.70
2017-09-26T02:55:04.283Z,12.70
2017-09-26T02:57:31.909Z,12.70
2017-09-26T02:59:59.529Z,12.70
2017-09-26T03:02:27.950Z,12.70
2017-09-26T03:04:55.571Z,12.60
2017-09-26T03:07:23.195Z,12.70
2017-09-26T03:09:50.846Z,12.70
2017-09-26T03:12:18.469Z,12.80
2017-09-26T03:14:46.126Z,12.70
2017-09-26T03:17:14.548Z,12.80
2017-09-26T03:19:42.175Z,12.80
2017-09-26T03:22:09.794Z,12.80
2017-09-26T03:24:37.451Z,12.80
2017-09-26T03:27:05.074Z,12.80
2017-09-26T03:29:33.463Z,12.80
2017-09-26T03:32:01.113Z,12.70
2017-09-26T03:34:29.594Z,12.80
2017-09-26T03:36:57.213Z,12.80
2017-09-26T03:39:24.867Z,12.80
2017-09-26T03:41:52.482Z,12.80
2017-09-26T03:44:20.883Z,12.80
2017-09-26T03:46:48.704Z,12.70
2017-09-26T03:49:17.093Z,12.80
2017-09-26T03:51:44.729Z,12.70
2017-09-26T03:54:12.379Z,12.80
2017-09-26T03:56:39.998Z,12.80
2017-09-26T03:59:08.390Z,12.80
2017-09-26T04:01:36.039Z,12.70
2017-09-26T04:04:03.657Z,12.70
2017-09-26T04:06:32.045Z,12.80
2017-09-26T04:08:59.694Z,12.70
2017-09-26T04:11:27.327Z,12.80
2017-09-26T04:13:54.959Z,12.80
2017-09-26T04:16:23.461Z,12.70
2017-09-26T04:18:51.077Z,12.70
2017-09-26T04:21:19.458Z,12.80
2017-09-26T04:23:47.106Z,12.70
2017-09-26T04:26:14.724Z,12.80
2017-09-26T04:28:43.109Z,12.80
2017-09-26T04:31:10.758Z,12.80
2017-09-26T04:33:38.380Z,12.80
2017-09-26T04:36:06.765Z,12.80
2017-09-26T04:38:34.419Z,12.80
2017-09-26T04:41:02.038Z,12.80
2017-09-26T04:43:30.422Z,12.80
2017-09-26T04:45:58.075Z,12.80
2017-09-26T04:48:25.705Z,12.80
2017-09-26T04:50:56.705Z,12.80
2017-09-26T04:53:24.353Z,12.80
2017-09-26T04:55:51.975Z,12.90
2017-09-26T04:58:19.594Z,12.80
2017-09-26T05:00:48.218Z,12.80
2017-09-26T05:03:15.932Z,12.80
2017-09-26T05:05:43.562Z,12.80
2017-09-26T05:08:11.213Z,12.80
2017-09-26T05:10:38.834Z,12.80
2017-09-26T05:13:06.495Z,12.80
2017-09-26T05:15:34.174Z,12.80
2017-09-26T05:18:01.803Z,12.80
2017-09-26T05:20:29.426Z,12.80
2017-09-26T05:22:57.145Z,12.70
2017-09-26T05:25:24.766Z,12.70
2017-09-26T05:27:52.376Z,12.70
2017-09-26T05:30:20.034Z,12.80
2017-09-26T05:32:47.659Z,12.80
2017-09-26T05:35:15.305Z,12.90
2017-09-26T05:37:42.961Z,12.80
2017-09-26T05:40:10.583Z,12.90
2017-09-26T05:42:38.971Z,13.00
2017-09-26T05:45:06.622Z,12.90
2017-09-26T05:47:34.241Z,13.10
2017-09-26T05:50:02.631Z,13.10
2017-09-26T05:52:30.292Z,13.00
2017-09-26T05:54:57.914Z,13.20
2017-09-26T05:57:25.669Z,13.30
2017-09-26T05:59:53.350Z,13.20
2017-09-26T06:02:21.293Z,13.30
2017-09-26T06:04:49.286Z,13.30
2017-09-26T06:07:18.130Z,13.40
2017-09-26T06:09:45.790Z,13.30
2017-09-26T06:12:13.418Z,13.50
2017-09-26T06:14:41.071Z,13.60
2017-09-26T06:17:08.695Z,13.80
2017-09-26T06:19:36.311Z,14.00
2017-09-26T06:22:03.970Z,13.90
2017-09-26T06:24:31.590Z,14.00
2017-09-26T06:26:59.974Z,14.50
2017-09-26T06:29:27.630Z,14.50
2017-09-26T06:31:55.242Z,14.80
2017-09-26T06:34:23.638Z,15.60
2017-09-26T06:36:51.290Z,15.60
2017-09-26T06:39:18.905Z,15.90
2017-09-26T06:41:47.284Z,16.00
2017-09-26T06:44:15.700Z,15.60
2017-09-26T06:46:43.334Z,15.60
2017-09-26T06:49:10.957Z,15.30
2017-09-26T06:51:38.607Z,15.30
2017-09-26T06:54:06.218Z,15.40
2017-09-26T06:56:33.834Z,15.10
2017-09-26T06:59:01.493Z,14.90
2017-09-26T07:01:29.114Z,14.90
2017-09-26T07:03:56.726Z,14.80
2017-09-26T07:06:24.373Z,14.80
2017-09-26T07:08:51.993Z,14.80
2017-09-26T07:11:20.374Z,14.70
2017-09-26T07:13:48.026Z,14.70
2017-09-26T07:16:15.647Z,14.80
2017-09-26T07:18:43.270Z,14.90
2017-09-26T07:21:10.933Z,14.80
2017-09-26T07:23:38.560Z,14.90
2017-09-26T07:26:06.173Z,14.90
2017-09-26T07:28:33.846Z,14.80
2017-09-26T07:31:01.468Z,14.80
2017-09-26T07:33:29.087Z,14.80
2017-09-26T07:35:56.734Z,14.90
2017-09-26T07:38:25.115Z,15.20
2017-09-26T07:40:52.731Z,15.10
2017-09-26T07:43:20.374Z,15.10
2017-09-26T07:45:48.757Z,14.90
2017-09-26T07:48:17.146Z,14.90
2017-09-26T07:50:44.810Z,14.90
2017-09-26T07:53:12.422Z,15.00
2017-09-26T07:55:40.044Z,15.00
2017-09-26T07:58:08.462Z,15.20
2017-09-26T08:00:36.311Z,15.10
2017-09-26T08:03:03.927Z,15.20
2017-09-26T08:05:31.826Z,15.40
2017-09-26T08:07:59.816Z,15.70
2017-09-26T08:10:28.194Z,16.60
2017-09-26T08:12:55.847Z,16.60
2017-09-26T08:15:23.459Z,16.80
2017-09-26T08:17:51.078Z,17.00
2017-09-26T08:20:18.722Z,17.30
2017-09-26T08:22:46.335Z,17.80
2017-09-26T08:25:13.950Z,17.90
2017-09-26T08:27:41.575Z,18.00
2017-09-26T08:30:09.161Z,18.70
2017-09-26T08:32:37.521Z,18.50
2017-09-26T08:35:05.930Z,17.90
2017-09-26T08:37:33.547Z,17.90
2017-09-26T08:40:01.163Z,17.50
2017-09-26T08:42:29.570Z,16.90
2017-09-26T08:44:57.190Z,16.80
2017-09-26T08:47:24.804Z,17.00
2017-09-26T08:49:52.450Z,17.20
2017-09-26T08:52:20.037Z,17.80
2017-09-26T08:54:48.390Z,18.40
2017-09-26T08:57:16.022Z,18.30
2017-09-26T08:59:43.619Z,19.00
2017-09-26T09:02:11.210Z,18.90
2017-09-26T09:04:38.833Z,18.90
2017-09-26T09:07:06.417Z,19.40
2017-09-26T09:09:34.002Z,19.50
2017-09-26T09:12:01.617Z,19.20
2017-09-26T09:14:29.205Z,19.30
2017-09-26T09:16:56.797Z,19.40
2017-09-26T09:19:24.418Z,19.40
2017-09-26T09:21:52.006Z,19.80
2017-09-26T09:24:20.354Z,19.70
2017-09-26T09:26:47.970Z,19.70
2017-09-26T09:29:15.567Z,19.10
2017-09-26T09:31:43.921Z,20.20
2017-09-26T09:34:12.310Z,20.90
2017-09-26T09:36:39.900Z,20.80
2017-09-26T09:39:07.489Z,20.70
2017-09-26T09:41:35.119Z,20.60
2017-09-26T09:44:02.709Z,20.10
2017-09-26T09:46:30.303Z,19.70
2017-09-26T09:48:57.928Z,19.60
2017-09-26T09:51:25.515Z,19.50
2017-09-26T09:53:53.102Z,19.30
2017-09-26T09:56:20.723Z,19.40
2017-09-26T09:58:48.315Z,19.70
2017-09-26T10:01:15.903Z,19.30
2017-09-26T10:03:43.525Z,18.80
2017-09-26T10:06:11.883Z,18.90
2017-09-26T10:08:39.475Z,18.90
2017-09-26T10:11:07.104Z,19.40
2017-09-26T10:13:34.695Z,20.10
2017-09-26T10:16:02.277Z,20.00
2017-09-26T10:18:30.661Z,20.10
2017-09-26T10:20:58.253Z,20.00
2017-09-26T10:23:25.845Z,20.20
2017-09-26T10:25:53.467Z,20.50
2017-09-26T10:28:21.822Z,20.20
2017-09-26T10:30:49.414Z,20.20
2017-09-26T10:33:17.045Z,19.90
2017-09-26T10:35:44.640Z,19.90
2017-09-26T10:38:12.231Z,20.00
2017-09-26T10:40:40.624Z,20.40
2017-09-26T10:43:08.209Z,20.30
2017-09-26T10:45:35.805Z,20.10
2017-09-26T10:48:03.432Z,20.20
2017-09-26T10:50:31.021Z,20.00
2017-09-26T10:52:58.611Z,19.60
2017-09-26T10:55:26.998Z,18.80
2017-09-26T10:57:54.590Z,18.80
2017-09-26T11:00:22.183Z,18.90
2017-09-26T11:02:49.806Z,19.10
2017-09-26T11:05:18.163Z,19.30
2017-09-26T11:07:45.766Z,19.20
2017-09-26T11:10:13.380Z,19.50
2017-09-26T11:12:40.982Z,19.80
2017-09-26T11:15:08.574Z,19.90
2017-09-26T11:17:36.203Z,19.80
2017-09-26T11:20:04.559Z,19.80
2017-09-26T11:22:32.157Z,19.80
2017-09-26T11:24:59.782Z,19.80
2017-09-26T11:27:27.379Z,19.60
2017-09-26T11:29:54.989Z,19.50
2017-09-26T11:32:22.610Z,19.40
2017-09-26T11:34:50.203Z,19.50
2017-09-26T11:37:17.794Z,19.30
2017-09-26T11:39:46.179Z,19.20
2017-09-26T11:42:13.769Z,19.20
2017-09-26T11:44:41.371Z,18.90
2017-09-26T11:47:09.019Z,18.70
2017-09-26T11:49:36.603Z,18.70
2017-09-26T11:52:04.185Z,18.80
2017-09-26T11:54:31.834Z,18.80
2017-09-26T11:56:59.422Z,18.70
2017-09-26T11:59:27.046Z,18.50
2017-09-26T12:01:54.666Z,18.60
2017-09-26T12:04:22.291Z,18.80
2017-09-26T12:06:50.669Z,18.60
2017-09-26T12:09:19.086Z,18.60
2017-09-26T12:11:46.697Z,18.60
2017-09-26T12:14:14.310Z,18.60
2017-09-26T12:16:41.930Z,18.60
2017-09-26T12:19:09.543Z,18.50
2017-09-26T12:21:37.134Z,18.50
2017-09-26T12:24:04.746Z,18.60
2017-09-26T12:26:32.342Z,18.70
2017-09-26T12:28:59.939Z,18.40
2017-09-26T12:31:27.581Z,18.30
2017-09-26T12:33:55.188Z,18.20
2017-09-26T12:36:22.794Z,18.10
2017-09-26T12:38:50.443Z,17.80
2017-09-26T12:41:18.066Z,17.80
2017-09-26T12:43:45.677Z,17.70
2017-09-26T12:46:13.315Z,17.60
2017-09-26T12:48:41.699Z,17.40
2017-09-26T12:51:09.309Z,17.30
2017-09-26T12:53:36.956Z,17.40
2017-09-26T12:56:05.329Z,17.50
2017-09-26T12:58:32.947Z,17.40
2017-09-26T13:01:00.596Z,17.30
2017-09-26T13:03:28.207Z,17.20
2017-09-26T13:05:55.821Z,17.10
2017-09-26T13:08:23.471Z,17.20
2017-09-26T13:10:51.082Z,17.10
2017-09-26T13:13:18.693Z,17.10
2017-09-26T13:15:46.333Z,17.10
2017-09-26T13:18:13.947Z,17.00
2017-09-26T13:20:42.318Z,17.10
2017-09-26T13:23:09.964Z,17.00
2017-09-26T13:25:37.579Z,17.20
2017-09-26T13:28:05.193Z,17.00
2017-09-26T13:30:32.845Z,17.00
2017-09-26T13:33:00.465Z,17.00
2017-09-26T13:35:28.084Z,17.00
2017-09-26T13:37:56.489Z,16.90
2017-09-26T13:40:24.100Z,16.90
2017-09-26T13:42:51.711Z,17.00
2017-09-26T13:45:19.359Z,17.00
2017-09-26T13:47:46.974Z,17.20
2017-09-26T13:50:14.590Z,17.10
2017-09-26T13:52:42.231Z,17.10
2017-09-26T13:55:09.841Z,17.00
2017-09-26T13:57:37.474Z,17.10
2017-09-26T14:00:05.125Z,17.10
2017-09-26T14:02:32.738Z,17.10
2017-09-26T14:05:00.346Z,17.20
2017-09-26T14:07:28.753Z,17.20
2017-09-26T14:09:56.445Z,17.20
2017-09-26T14:12:24.061Z,17.20
2017-09-26T14:14:51.708Z,17.30
2017-09-26T14:17:19.335Z,17.20
2017-09-26T14:19:46.942Z,17.20
2017-09-26T14:22:15.349Z,17.10
2017-09-26T14:24:42.962Z,17.10
2017-09-26T14:27:11.341Z,17.10
2017-09-26T14:29:38.994Z,17.10
2017-09-26T14:32:06.610Z,17.10
2017-09-26T14:34:34.986Z,17.20
2017-09-26T14:37:02.642Z,17.20
2017-09-26T14:39:30.259Z,17.30
2017-09-26T14:41:57.933Z,17.30
2017-09-26T14:44:25.574Z,17.30
2017-09-26T14:46:53.187Z,17.40
2017-09-26T14:49:20.799Z,17.30
2017-09-26T14:51:48.459Z,17.30
2017-09-26T14:54:16.061Z,17.20
2017-09-26T14:56:43.678Z,17.00
2017-09-26T14:59:11.317Z,17.00
2017-09-26T15:01:38.934Z,17.00
2017-09-26T15:04:06.550Z,17.00
2017-09-26T15:06:34.191Z,16.90
2017-09-26T15:09:01.807Z,16.80
2017-09-26T15:11:29.419Z,16.80
2017-09-26T15:13:57.061Z,16.70
2017-09-26T15:16:24.677Z,16.70
2017-09-26T15:18:52.290Z,16.70
2017-09-26T15:21:19.938Z,16.60
2017-09-26T15:23:47.544Z,16.70
2017-09-26T15:26:15.167Z,16.70
2017-09-26T15:28:42.809Z,16.80
2017-09-26T15:31:10.419Z,16.70
2017-09-26T15:33:38.034Z,16.70
2017-09-26T15:36:05.683Z,16.70
2017-09-26T15:38:33.299Z,16.70
2017-09-26T15:41:00.915Z,16.60
2017-09-26T15:43:29.326Z,16.70
2017-09-26T15:45:56.934Z,16.60
2017-09-26T15:48:25.334Z,16.50
2017-09-26T15:50:52.968Z,16.50
2017-09-26T15:53:20.586Z,16.50
2017-09-26T15:55:49.078Z,16.40
2017-09-26T15:58:16.721Z,16.40
2017-09-26T16:00:44.335Z,16.30
2017-09-26T16:03:11.946Z,16.40
2017-09-26T16:05:39.596Z,16.40
2017-09-26T16:08:07.197Z,16.40
2017-09-26T16:10:34.806Z,16.40
2017-09-26T16:13:02.451Z,16.30
2017-09-26T16:15:30.078Z,16.30
2017-09-26T16:17:57.682Z,16.20
2017-09-26T16:20:25.328Z,16.20
2017-09-26T16:22:52.944Z,16.20
2017-09-26T16:25:20.578Z,16.20
2017-09-26T16:27:48.222Z,16.20
2017-09-26T16:30:15.832Z,16.20
2017-09-26T16:32:43.442Z,16.20
2017-09-26T16:35:11.881Z,16.30
2017-09-26T16:37:39.570Z,16.20
2017-09-26T16:40:07.223Z,16.20
2017-09-26T16:42:34.964Z,16.20
2017-09-26T16:45:02.585Z,16.20
2017-09-26T16:47:31.008Z,16.00
2017-09-26T16:49:58.690Z,16.00
2017-09-26T16:52:26.313Z,16.10
2017-09-26T16:54:53.961Z,16.10
2017-09-26T16:57:21.597Z,16.00
2017-09-26T16:59:49.216Z,16.00
2017-09-26T17:02:16.821Z,15.90
2017-09-26T17:04:44.708Z,16.00
2017-09-26T17:07:12.322Z,15.90
2017-09-26T17:09:39.931Z,15.90
2017-09-26T17:12:10.142Z,15.90
2017-09-26T17:14:37.969Z,15.90
2017-09-26T17:17:05.578Z,15.80
2017-09-26T17:19:33.999Z,15.70
2017-09-26T17:22:01.626Z,15.60
2017-09-26T17:24:29.858Z,15.60
2017-09-26T17:26:58.270Z,15.60
2017-09-26T17:29:25.885Z,15.60
2017-09-26T17:31:53.506Z,15.60
2017-09-26T17:34:21.934Z,15.50
2017-09-26T17:36:49.550Z,15.50
2017-09-26T17:39:17.173Z,15.50
2017-09-26T17:41:44.822Z,15.50
2017-09-26T17:44:13.210Z,15.50
2017-09-26T17:46:40.834Z,15.40
2017-09-26T17:49:09.344Z,15.40
2017-09-26T17:51:36.993Z,15.30
2017-09-26T17:54:04.614Z,15.40
2017-09-26T17:56:32.275Z,15.40
2017-09-26T17:58:59.997Z,15.40
2017-09-26T18:01:27.610Z,15.30
2017-09-26T18:03:56.038Z,15.30
2017-09-26T18:06:23.654Z,15.30
2017-09-26T18:08:51.269Z,15.20
2017-09-26T18:11:19.876Z,15.20
2017-09-26T18:13:47.493Z,15.20
2017-09-26T18:16:15.890Z,15.30
2017-09-26T18:18:43.537Z,15.20
2017-09-26T18:21:11.174Z,15.30
2017-09-26T18:23:40.528Z,15.20
2017-09-26T18:26:09.539Z,15.20
2017-09-26T18:28:37.153Z,15.20
2017-09-26T18:31:04.771Z,15.20
2017-09-26T18:33:32.434Z,15.10
2017-09-26T18:36:00.067Z,15.20
2017-09-26T18:38:27.687Z,15.20
2017-09-26T18:40:55.358Z,15.10
2017-09-26T18:43:23.004Z,15.00
2017-09-26T18:45:50.623Z,15.00
2017-09-26T18:48:18.327Z,15.00
2017-09-26T18:50:45.946Z,15.00
2017-09-26T18:53:13.568Z,14.90
2017-09-26T18:55:41.216Z,14.90
2017-09-26T18:58:08.830Z,14.90
2017-09-26T19:00:37.222Z,14.90
2017-09-26T19:03:04.869Z,14.80
2017-09-26T19:05:32.486Z,14.90
2017-09-26T19:08:00.870Z,14.80
2017-09-26T19:10:28.575Z,14.80
2017-09-26T19:12:56.193Z,14.80
2017-09-26T19:15:23.814Z,14.80
2017-09-26T19:17:51.466Z,14.80
2017-09-26T19:20:19.161Z,14.80
2017-09-26T19:22:46.779Z,14.70
2017-09-26T19:25:14.426Z,14.70
2017-09-26T19:27:42.046Z,14.70
2017-09-26T19:30:09.675Z,14.70
2017-09-26T19:32:37.327Z,14.60
2017-09-26T19:35:04.954Z,14.60
2017-09-26T19:37:32.601Z,14.60
2017-09-26T19:40:01.018Z,14.60
2017-09-26T19:42:29.666Z,14.60
2017-09-26T19:44:57.290Z,14.60
2017-09-26T19:47:24.944Z,14.70
2017-09-26T19:49:52.560Z,14.70
2017-09-26T19:52:20.183Z,14.70
2017-09-26T19:54:47.838Z,14.70
2017-09-26T19:57:15.450Z,14.60
2017-09-26T19:59:43.063Z,14.60
2017-09-26T20:02:11.482Z,14.50
2017-09-26T20:04:39.097Z,14.40
2017-09-26T20:07:06.717Z,14.40
2017-09-26T20:09:35.142Z,14.40
2017-09-26T20:12:02.766Z,14.30
2017-09-26T20:14:30.386Z,14.40
2017-09-26T20:16:58.038Z,14.40
2017-09-26T20:19:25.666Z,14.50
2017-09-26T20:21:53.303Z,14.50
2017-09-26T20:24:21.735Z,14.30
2017-09-26T20:26:49.411Z,14.30
2017-09-26T20:29:17.026Z,14.30
2017-09-26T20:31:44.674Z,14.30
2017-09-26T20:34:12.294Z,14.30
2017-09-26T20:36:39.958Z,14.20
2017-09-26T20:39:07.614Z,14.20
2017-09-26T20:41:35.238Z,14.10
2017-09-26T20:44:02.869Z,14.10
2017-09-26T20:46:30.516Z,14.20
2017-09-26T20:48:58.137Z,14.20
2017-09-26T20:51:26.523Z,14.10
2017-09-26T20:53:54.177Z,14.00
2017-09-26T20:56:21.798Z,14.10
2017-09-26T20:58:49.495Z,14.10
2017-09-26T21:01:17.158Z,14.10
2017-09-26T21:03:44.784Z,14.20
2017-09-26T21:06:12.399Z,14.10
2017-09-26T21:08:40.041Z,14.20
2017-09-26T21:11:08.421Z,14.20
2017-09-26T21:13:36.038Z,14.20
2017-09-26T21:16:04.456Z,14.10
2017-09-26T21:18:32.074Z,14.00
2017-09-26T21:20:59.685Z,14.20
2017-09-26T21:23:28.102Z,14.20
2017-09-26T21:25:55.732Z,14.20
2017-09-26T21:28:23.378Z,14.30
2017-09-26T21:30:51.519Z,14.30
2017-09-26T21:33:19.155Z,14.30
2017-09-26T21:35:46.834Z,14.30
2017-09-26T21:38:14.482Z,14.30
2017-09-26T21:40:42.105Z,14.40
2017-09-26T21:43:10.502Z,14.50
2017-09-26T21:45:38.152Z,14.40
2017-09-26T21:48:05.774Z,14.50
2017-09-26T21:50:33.393Z,14.50
2017-09-26T21:53:01.037Z,14.40
2017-09-26T21:55:29.431Z,14.20
2017-09-26T21:57:57.054Z,14.20
2017-09-26T22:00:25.477Z,14.30
2017-09-26T22:02:53.095Z,14.30
2017-09-26T22:05:20.712Z,14.30
2017-09-26T22:07:49.162Z,14.20
2017-09-26T22:10:16.786Z,14.10
2017-09-26T22:12:44.406Z,14.20
2017-09-26T22:15:12.058Z,14.20
2017-09-26T22:17:39.681Z,14.20
2017-09-26T22:20:07.302Z,14.20
2017-09-26T22:22:34.954Z,14.20
2017-09-26T22:25:02.575Z,14.20
2017-09-26T22:27:30.186Z,14.20
2017-09-26T22:30:03.899Z,14.20
2017-09-26T22:32:31.522Z,14.20
2017-09-26T22:34:59.141Z,14.10
2017-09-26T22:37:26.792Z,14.20
2017-09-26T22:39:54.410Z,14.20
2017-09-26T22:42:22.028Z,14.20
2017-09-26T22:44:49.676Z,14.10
2017-09-26T22:47:17.289Z,14.20
2017-09-26T22:49:44.906Z,14.10
2017-09-26T22:52:13.321Z,14.10
2017-09-26T22:54:40.937Z,14.10
2017-09-26T22:57:08.549Z,14.10
2017-09-26T22:59:36.201Z,14.10
2017-09-26T23:02:04.586Z,14.20
2017-09-26T23:04:32.205Z,14.10
2017-09-26T23:06:59.853Z,14.20
2017-09-26T23:09:28.925Z,14.20
2017-09-26T23:11:56.542Z,14.20
2017-09-26T23:14:24.198Z,14.10
2017-09-26T23:16:51.822Z,14.10
2017-09-26T23:19:19.434Z,14.10
2017-09-26T23:21:47.083Z,14.10
2017-09-26T23:24:15.470Z,14.10
2017-09-26T23:26:43.102Z,14.10
2017-09-26T23:29:10.753Z,14.10
2017-09-26T23:31:38.386Z,14.00
2017-09-26T23:34:06.767Z,14.10
2017-09-26T23:36:34.431Z,14.10
2017-09-26T23:39:02.054Z,14.10
2017-09-26T23:41:29.673Z,14.00
2017-09-26T23:43:57.325Z,14.10
2017-09-26T23:46:25.701Z,14.10
2017-09-26T23:48:54.085Z,14.10
2017-09-26T23:51:21.742Z,14.00
2017-09-26T23:53:49.358Z,14.10
2017-09-26T23:56:16.978Z,14.10
2017-09-26T23:58:44.627Z,14.10
